createdAt,value
2022-08-11T00:04:18.387Z,82.6
2022-08-11T00:09:18.397Z,82.7
2022-08-11T00:14:18.385Z,83.1
2022-08-11T00:19:18.394Z,83.3
2022-08-11T00:24:18.384Z,83.5
2022-08-11T00:29:18.399Z,83.7
2022-08-11T00:34:18.396Z,84.1
2022-08-11T00:39:18.422Z,84.2
2022-08-11T00:44:18.385Z,84.1
2022-08-11T00:49:18.402Z,84.1
2022-08-11T00:54:18.395Z,84.0
2022-08-11T00:59:35.587Z,84.0
2022-08-11T01:04:18.397Z,84.1
2022-08-11T01:09:22.727Z,84.4
2022-08-11T01:14:18.401Z,84.5
2022-08-11T01:19:18.396Z,84.7
2022-08-11T01:24:18.393Z,84.6
2022-08-11T01:29:18.402Z,84.5
2022-08-11T01:34:18.404Z,84.7
2022-08-11T01:39:18.726Z,85.0
2022-08-11T01:44:18.403Z,85.3
2022-08-11T01:49:29.153Z,85.4
2022-08-11T01:54:18.407Z,85.4
2022-08-11T01:59:18.390Z,85.8
2022-08-11T02:04:18.408Z,86.1
2022-08-11T02:09:18.950Z,86.2
2022-08-11T02:14:18.400Z,86.4
2022-08-11T02:19:18.408Z,86.5
2022-08-11T02:24:18.412Z,86.7
2022-08-11T02:29:18.408Z,86.9
2022-08-11T02:34:18.409Z,87.1
2022-08-11T02:39:18.428Z,87.2
2022-08-11T02:44:18.395Z,87.8
2022-08-11T02:49:18.407Z,88.1
2022-08-11T02:54:18.415Z,88.4
2022-08-11T02:59:18.424Z,88.3
2022-08-11T03:04:18.430Z,88.3
2022-08-11T03:09:18.425Z,88.9
2022-08-11T03:14:18.419Z,89.3
2022-08-11T03:19:18.417Z,89.8
2022-08-11T03:24:18.426Z,89.9
2022-08-11T03:29:24.951Z,90.1
2022-08-11T03:34:18.425Z,90.2
2022-08-11T03:39:18.468Z,89.9
2022-08-11T03:44:18.421Z,90.1
2022-08-11T03:49:18.435Z,90.5
2022-08-11T03:54:18.466Z,90.5
2022-08-11T03:59:18.418Z,90.6
2022-08-11T04:04:18.449Z,90.6
2022-08-11T04:09:18.418Z,91.1
2022-08-11T04:14:18.433Z,91.3
2022-08-11T04:19:18.433Z,91.4
2022-08-11T04:24:38.178Z,91.4
2022-08-11T04:29:18.428Z,91.2
2022-08-11T04:34:18.459Z,91.2
2022-08-11T04:39:18.442Z,91.5
2022-08-11T04:44:18.437Z,91.7
2022-08-11T04:49:24.213Z,91.6
2022-08-11T04:54:18.436Z,92.0
2022-08-11T04:59:18.430Z,91.9
2022-08-11T05:04:18.464Z,91.8
2022-08-11T05:09:18.428Z,92.1
2022-08-11T05:14:18.438Z,92.4
2022-08-11T05:19:18.434Z,93.2
2022-08-11T05:24:18.440Z,93.0
2022-08-11T05:29:19.714Z,93.0
2022-08-11T05:34:18.441Z,92.9
2022-08-11T05:39:18.464Z,92.7
2022-08-11T05:44:21.203Z,92.6
2022-08-11T05:49:18.453Z,92.7
2022-08-11T05:54:28.437Z,91.7
2022-08-11T05:59:18.427Z,91.7
2022-08-11T06:04:18.442Z,90.0
2022-08-11T06:09:18.428Z,87.2
2022-08-11T06:14:18.443Z,84.0
2022-08-11T06:19:18.450Z,81.9
2022-08-11T06:24:18.442Z,80.2
2022-08-11T06:29:18.434Z,77.2
2022-08-11T06:34:27.336Z,77.4
2022-08-11T06:39:18.485Z,76.5
2022-08-11T06:44:18.449Z,74.2
2022-08-11T06:49:18.441Z,73.9
2022-08-11T06:54:18.450Z,74.6
2022-08-11T06:59:18.433Z,73.4
2022-08-11T07:04:18.440Z,72.4
2022-08-11T07:09:18.450Z,70.7
2022-08-11T07:14:18.443Z,69.4
2022-08-11T07:19:18.466Z,68.4
2022-08-11T07:24:18.432Z,67.4
2022-08-11T07:29:18.463Z,67.2
2022-08-11T07:34:18.648Z,67.0
2022-08-11T07:39:18.548Z,65.4
2022-08-11T07:44:18.487Z,64.1
2022-08-11T07:49:18.439Z,62.9
2022-08-11T07:54:18.444Z,61.3
2022-08-11T07:59:18.457Z,60.3
2022-08-11T08:04:18.435Z,59.9
2022-08-11T08:09:18.483Z,59.1
2022-08-11T08:14:18.453Z,58.3
2022-08-11T08:19:18.449Z,57.9
2022-08-11T08:24:18.446Z,56.5
2022-08-11T08:29:18.453Z,55.4
2022-08-11T08:34:18.475Z,54.2
2022-08-11T08:39:18.480Z,53.4
2022-08-11T08:44:37.748Z,52.2
2022-08-11T08:49:18.448Z,52.3
2022-08-11T08:54:18.446Z,51.5
2022-08-11T08:59:18.443Z,50.4
2022-08-11T09:04:20.936Z,49.3
2022-08-11T09:09:18.477Z,48.7
2022-08-11T09:14:18.456Z,47.3
2022-08-11T09:19:18.449Z,47.6
2022-08-11T09:24:25.869Z,47.4
2022-08-11T09:29:18.446Z,46.9
2022-08-11T09:34:18.449Z,45.6
2022-08-11T09:39:18.530Z,45.5
2022-08-11T09:44:18.451Z,44.4
2022-08-11T09:49:18.457Z,44.5
2022-08-11T09:54:18.465Z,43.8
2022-08-11T09:59:18.449Z,42.1
2022-08-11T10:04:18.484Z,42.5
2022-08-11T10:09:18.469Z,41.9
2022-08-11T10:14:33.489Z,41.9
2022-08-11T10:19:18.493Z,40.7
2022-08-11T10:24:18.478Z,40.4
2022-08-11T10:29:18.814Z,40.9
2022-08-11T10:34:19.075Z,40.0
2022-08-11T10:39:18.517Z,39.6
2022-08-11T10:44:18.452Z,39.8
2022-08-11T10:49:18.475Z,39.0
2022-08-11T10:54:18.469Z,39.8
2022-08-11T10:59:18.448Z,39.8
2022-08-11T11:04:18.459Z,39.0
2022-08-11T11:09:18.453Z,38.2
2022-08-11T11:14:18.441Z,37.0
2022-08-11T11:19:18.467Z,35.5
2022-08-11T11:24:18.452Z,32.6
2022-08-11T11:29:18.462Z,29.8
2022-08-11T11:34:20.041Z,29.0
2022-08-11T11:39:18.468Z,25.5
2022-08-11T11:44:18.470Z,27.0
2022-08-11T11:49:18.464Z,29.1
2022-08-11T11:54:18.493Z,30.1
2022-08-11T11:59:18.449Z,30.6
2022-08-11T12:04:18.461Z,31.3
2022-08-11T12:09:18.484Z,31.2
2022-08-11T12:14:18.478Z,30.8
2022-08-11T12:19:18.446Z,30.8
2022-08-11T12:24:18.458Z,29.6
2022-08-11T12:29:18.462Z,29.2
2022-08-11T12:34:18.495Z,28.3
2022-08-11T12:39:23.419Z,27.8
2022-08-11T12:44:21.088Z,27.0
2022-08-11T12:49:18.471Z,27.4
2022-08-11T12:54:18.467Z,27.5
2022-08-11T12:59:18.453Z,26.3
2022-08-11T13:04:18.476Z,26.5
2022-08-11T13:09:18.454Z,26.9
2022-08-11T13:14:18.456Z,26.4
2022-08-11T13:19:18.464Z,26.8
2022-08-11T13:24:18.465Z,27.0
2022-08-11T13:29:18.460Z,27.2
2022-08-11T13:34:18.478Z,27.0
2022-08-11T13:39:18.502Z,26.0
2022-08-11T13:44:23.177Z,25.5
2022-08-11T13:49:18.456Z,26.0
2022-08-11T13:54:18.458Z,26.2
2022-08-11T13:59:18.471Z,25.9
2022-08-11T14:04:29.888Z,25.4
2022-08-11T14:09:18.459Z,23.7
2022-08-11T14:14:18.460Z,23.5
2022-08-11T14:19:18.442Z,24.1
2022-08-11T14:24:18.455Z,24.1
2022-08-11T14:34:18.469Z,23.5
2022-08-11T14:39:18.640Z,23.9
2022-08-11T14:44:18.470Z,24.3
2022-08-11T14:49:18.452Z,26.2
2022-08-11T14:54:18.451Z,27.7
2022-08-11T14:59:18.477Z,28.0
2022-08-11T15:04:34.236Z,29.0
2022-08-11T15:09:18.448Z,30.8
2022-08-11T15:14:18.467Z,32.0
2022-08-11T15:19:18.441Z,34.0
2022-08-11T15:24:18.478Z,34.2
2022-08-11T15:29:23.017Z,35.2
2022-08-11T15:34:18.465Z,36.2
2022-08-11T15:39:20.158Z,35.6
2022-08-11T15:44:18.500Z,35.9
2022-08-11T15:49:21.819Z,34.5
2022-08-11T15:54:18.485Z,37.0
2022-08-11T15:59:42.458Z,40.7
2022-08-11T16:04:18.484Z,42.3
2022-08-11T16:09:19.227Z,44.3
2022-08-11T16:14:18.481Z,44.8
2022-08-11T16:19:18.483Z,45.8
2022-08-11T16:27:04.997Z,46.0
2022-08-11T16:29:18.535Z,46.9
2022-08-11T16:34:21.399Z,47.4
2022-08-11T16:39:18.540Z,47.6
2022-08-11T16:44:18.490Z,47.9
2022-08-11T16:49:18.491Z,48.2
2022-08-11T16:54:18.480Z,48.5
2022-08-11T16:59:18.592Z,49.0
2022-08-11T17:04:18.494Z,49.9
2022-08-11T17:09:18.480Z,50.3
2022-08-11T17:14:18.491Z,50.5
2022-08-11T17:19:18.491Z,51.2
2022-08-11T17:24:18.504Z,52.5
2022-08-11T17:29:18.488Z,53.1
2022-08-11T17:34:18.523Z,54.0
2022-08-11T17:39:18.572Z,54.3
2022-08-11T17:44:18.508Z,54.4
2022-08-11T17:49:18.513Z,55.3
2022-08-11T17:54:24.986Z,55.7
2022-08-11T17:59:18.493Z,56.6
2022-08-11T18:04:18.509Z,57.2
2022-08-11T18:09:18.515Z,57.6
2022-08-11T18:14:18.506Z,57.6
2022-08-11T18:19:18.510Z,58.6
2022-08-11T18:24:18.502Z,58.4
2022-08-11T18:29:18.512Z,58.9
2022-08-11T18:34:18.524Z,60.4
2022-08-11T18:39:18.543Z,61.6
2022-08-11T18:44:18.516Z,62.8
2022-08-11T18:49:18.518Z,64.2
2022-08-11T18:54:18.521Z,65.1
2022-08-11T18:59:18.519Z,65.4
2022-08-11T19:04:19.210Z,65.9
2022-08-11T19:09:18.524Z,66.6
2022-08-11T19:14:18.529Z,67.5
2022-08-11T19:19:18.525Z,68.7
2022-08-11T19:24:18.546Z,69.3
2022-08-11T19:30:04.986Z,69.9
2022-08-11T19:34:18.536Z,70.2
2022-08-11T19:39:18.571Z,70.6
2022-08-11T19:44:18.543Z,71.6
2022-08-11T19:49:18.541Z,71.9
2022-08-11T19:54:18.548Z,72.0
2022-08-11T19:59:18.542Z,71.9
2022-08-11T20:04:18.536Z,72.1
2022-08-11T20:09:18.562Z,72.6
2022-08-11T20:14:18.549Z,73.5
2022-08-11T20:19:18.582Z,73.8
2022-08-11T20:24:18.558Z,74.7
2022-08-11T20:29:18.581Z,74.7
2022-08-11T20:34:18.534Z,75.3
2022-08-11T20:39:18.626Z,76.0
2022-08-11T20:44:18.541Z,76.3
2022-08-11T20:49:18.542Z,77.2
2022-08-11T20:54:18.548Z,77.9
2022-08-11T20:59:21.972Z,78.6
2022-08-11T21:04:20.039Z,79.6
2022-08-11T21:09:19.606Z,80.3
2022-08-11T21:14:18.553Z,80.5
2022-08-11T21:19:18.541Z,80.5
2022-08-11T21:24:18.555Z,80.9
2022-08-11T21:29:18.536Z,81.2
2022-08-11T21:34:18.557Z,81.6
2022-08-11T21:39:18.601Z,81.5
2022-08-11T21:44:18.553Z,81.6
2022-08-11T21:49:18.536Z,81.7
2022-08-11T21:54:18.554Z,82.0
2022-08-11T21:59:18.545Z,82.6
2022-08-11T22:04:18.549Z,82.7
2022-08-11T22:09:18.548Z,82.9
2022-08-11T22:14:18.550Z,83.6
2022-08-11T22:19:18.540Z,83.9
2022-08-11T22:24:18.600Z,84.0
2022-08-11T22:29:18.535Z,83.6
2022-08-11T22:34:18.552Z,84.2
2022-08-11T22:39:18.599Z,84.6
2022-08-11T22:44:18.544Z,84.7
2022-08-11T22:49:18.560Z,84.6
2022-08-11T22:54:18.569Z,85.5
2022-08-11T22:59:18.553Z,85.2
2022-08-11T23:04:18.579Z,85.5
2022-08-11T23:09:18.568Z,85.7
2022-08-11T23:14:18.579Z,86.2
2022-08-11T23:20:06.344Z,86.0
2022-08-11T23:24:18.573Z,86.5
2022-08-11T23:29:18.564Z,86.5
2022-08-11T23:34:41.729Z,86.7
2022-08-11T23:39:18.623Z,86.8
2022-08-11T23:44:18.575Z,86.8
2022-08-11T23:49:18.580Z,86.6
2022-08-11T23:54:18.616Z,86.0
2022-08-11T23:59:18.580Z,85.7
